createdAt,value
2022-09-12T00:00:21.565Z,10.40
2022-09-12T00:01:21.604Z,10.40
2022-09-12T00:02:21.569Z,10.30
2022-09-12T00:03:21.523Z,10.80
2022-09-12T00:04:21.675Z,10.60
2022-09-12T00:05:21.492Z,9.70
2022-09-12T00:06:23.077Z,9.60
2022-09-12T00:07:21.482Z,9.70
2022-09-12T00:08:21.512Z,10.00
2022-09-12T00:09:21.463Z,10.00
2022-09-12T00:10:21.604Z,10.80
2022-09-12T00:11:21.446Z,9.90
2022-09-12T00:12:21.446Z,10.40
2022-09-12T00:13:21.426Z,10.60
2022-09-12T00:14:21.397Z,10.50
2022-09-12T00:15:21.401Z,10.70
2022-09-12T00:16:21.745Z,10.60
2022-09-12T00:17:21.385Z,10.50
2022-09-12T00:18:21.362Z,10.50
2022-09-12T00:19:21.351Z,10.80
2022-09-12T00:20:21.332Z,10.50
2022-09-12T00:21:21.323Z,10.40
2022-09-12T00:22:21.533Z,9.70
2022-09-12T00:23:21.293Z,10.20
2022-09-12T00:24:21.293Z,10.00
2022-09-12T00:25:21.281Z,10.20
2022-09-12T00:26:21.278Z,9.60
2022-09-12T00:27:21.271Z,10.30
2022-09-12T00:28:21.408Z,10.40
2022-09-12T00:29:21.233Z,10.90
2022-09-12T00:30:21.233Z,10.50
2022-09-12T00:31:21.246Z,10.60
2022-09-12T00:32:21.202Z,10.60
2022-09-12T00:33:21.198Z,10.40
2022-09-12T00:34:21.559Z,10.70
2022-09-12T00:35:21.187Z,10.10
2022-09-12T00:36:21.165Z,10.80
2022-09-12T00:37:21.165Z,11.00
2022-09-12T00:38:21.144Z,10.70
2022-09-12T00:39:21.158Z,10.60
2022-09-12T00:40:21.274Z,9.90
2022-09-12T00:41:21.124Z,11.30
2022-09-12T00:42:21.099Z,10.70
2022-09-12T00:43:21.111Z,10.60
2022-09-12T00:44:21.080Z,10.80
2022-09-12T00:45:21.069Z,10.40
2022-09-12T00:46:21.214Z,11.20
2022-09-12T00:47:21.066Z,10.60
2022-09-12T00:48:21.038Z,10.90
2022-09-12T00:49:21.032Z,11.30
2022-09-12T00:50:21.006Z,10.90
2022-09-12T00:51:21.254Z,11.00
2022-09-12T00:52:20.985Z,11.00
2022-09-12T00:53:20.983Z,10.80
2022-09-12T00:54:21.005Z,10.10
2022-09-12T00:55:20.964Z,11.30
2022-09-12T00:56:20.963Z,11.20
2022-09-12T00:57:21.270Z,10.50
2022-09-12T00:58:20.945Z,11.00
2022-09-12T00:59:20.921Z,11.20
2022-09-12T01:00:20.913Z,11.20
2022-09-12T01:01:20.961Z,10.40
2022-09-12T01:02:20.890Z,9.90
2022-09-12T01:03:21.202Z,11.00
2022-09-12T01:04:20.870Z,10.60
2022-09-12T01:05:20.856Z,10.80
2022-09-12T01:06:20.851Z,11.00
2022-09-12T01:07:20.832Z,10.10
2022-09-12T01:08:20.813Z,10.60
2022-09-12T01:09:21.018Z,11.20
2022-09-12T01:10:20.794Z,10.20
2022-09-12T01:11:20.783Z,10.40
2022-09-12T01:12:20.773Z,10.90
2022-09-12T01:13:20.767Z,10.80
2022-09-12T01:14:20.760Z,10.90
2022-09-12T01:15:20.908Z,11.40
2022-09-12T01:16:20.753Z,11.80
2022-09-12T01:17:20.726Z,11.00
2022-09-12T01:18:20.706Z,11.40
2022-09-12T01:19:20.703Z,10.90
2022-09-12T01:20:20.687Z,12.00
2022-09-12T01:21:20.859Z,12.20
2022-09-12T01:22:20.666Z,11.50
2022-09-12T01:23:20.648Z,11.40
2022-09-12T01:24:20.650Z,11.90
2022-09-12T01:25:20.634Z,11.40
2022-09-12T01:26:20.624Z,11.50
2022-09-12T01:27:20.766Z,11.80
2022-09-12T01:28:20.595Z,12.10
2022-09-12T01:29:20.588Z,12.40
2022-09-12T01:30:20.591Z,11.90
2022-09-12T01:31:20.570Z,11.50
2022-09-12T01:32:20.807Z,11.50
2022-09-12T01:33:20.547Z,12.00
2022-09-12T01:34:20.536Z,12.00
2022-09-12T01:35:20.547Z,12.00
2022-09-12T01:36:20.504Z,11.60
2022-09-12T01:37:20.532Z,11.70
2022-09-12T01:38:20.648Z,11.80
2022-09-12T01:39:20.493Z,11.40
2022-09-12T01:40:20.465Z,11.50
2022-09-12T01:41:20.500Z,11.60
2022-09-12T01:42:20.445Z,11.80
2022-09-12T01:43:20.448Z,11.80
2022-09-12T01:44:20.636Z,11.90
2022-09-12T01:45:20.420Z,12.10
2022-09-12T01:46:20.429Z,12.00
2022-09-12T01:47:20.396Z,11.90
2022-09-12T01:48:20.389Z,12.50
2022-09-12T01:49:20.757Z,12.30
2022-09-12T01:50:20.380Z,12.10
2022-09-12T01:51:20.357Z,11.80
2022-09-12T01:52:20.351Z,11.20
2022-09-12T01:53:20.334Z,11.80
2022-09-12T01:54:20.320Z,11.80
2022-09-12T01:55:20.635Z,11.80
2022-09-12T01:56:20.300Z,12.10
2022-09-12T01:57:20.292Z,11.60
2022-09-12T01:58:20.314Z,12.00
2022-09-12T01:59:20.275Z,12.20
2022-09-12T02:00:20.255Z,13.30
2022-09-12T02:01:20.442Z,12.10
2022-09-12T02:02:20.269Z,12.10
2022-09-12T02:03:20.226Z,12.50
2022-09-12T02:04:20.215Z,12.40
2022-09-12T02:05:20.212Z,12.50
2022-09-12T02:06:20.185Z,12.40
2022-09-12T02:07:20.505Z,12.00
2022-09-12T02:08:20.177Z,12.10
2022-09-12T02:09:20.156Z,12.20
2022-09-12T02:10:20.147Z,11.80
2022-09-12T02:11:20.138Z,12.20
2022-09-12T02:12:20.126Z,12.80
2022-09-12T02:13:20.275Z,12.00
2022-09-12T02:14:20.106Z,12.30
2022-09-12T02:15:20.095Z,11.50
2022-09-12T02:16:20.131Z,11.00
2022-09-12T02:17:20.076Z,11.10
2022-09-12T02:18:20.060Z,11.40
2022-09-12T02:19:20.265Z,10.70
2022-09-12T02:20:37.513Z,11.20
2022-09-12T02:21:21.014Z,11.20
2022-09-12T02:22:20.011Z,11.30
2022-09-12T02:23:19.997Z,11.30
2022-09-12T02:24:19.976Z,11.20
2022-09-12T02:25:20.184Z,11.90
2022-09-12T02:26:19.970Z,11.40
2022-09-12T02:27:19.945Z,11.60
2022-09-12T02:28:19.936Z,11.40
2022-09-12T02:29:19.940Z,12.00
2022-09-12T02:30:19.917Z,10.90
2022-09-12T02:31:20.067Z,11.60
2022-09-12T02:32:19.899Z,11.30
2022-09-12T02:33:19.883Z,11.30
2022-09-12T02:34:19.868Z,11.50
2022-09-12T02:35:19.877Z,10.40
2022-09-12T02:36:20.080Z,11.00
2022-09-12T02:37:19.840Z,10.80
2022-09-12T02:38:19.835Z,11.60
2022-09-12T02:39:19.816Z,11.60
2022-09-12T02:40:19.845Z,11.10
2022-09-12T02:41:19.805Z,12.00
2022-09-12T02:42:20.095Z,11.20
2022-09-12T02:43:19.783Z,12.10
2022-09-12T02:44:19.764Z,12.00
2022-09-12T02:45:19.755Z,12.60
2022-09-12T02:46:19.744Z,12.90
2022-09-12T02:47:19.736Z,12.50
2022-09-12T02:48:19.894Z,13.30
2022-09-12T02:49:19.712Z,12.90
2022-09-12T02:50:19.696Z,12.50
2022-09-12T02:51:23.523Z,13.10
2022-09-12T02:52:19.676Z,12.40
2022-09-12T02:53:19.676Z,12.10
2022-09-12T02:54:22.617Z,12.20
2022-09-12T02:55:19.647Z,13.00
2022-09-12T02:56:19.627Z,13.10
2022-09-12T02:57:22.783Z,12.40
2022-09-12T02:58:19.606Z,12.40
2022-09-12T02:59:19.610Z,11.80
2022-09-12T03:00:19.922Z,12.70
2022-09-12T03:01:19.619Z,12.70
2022-09-12T03:02:19.605Z,11.80
2022-09-12T03:03:19.567Z,12.10
2022-09-12T03:04:19.549Z,12.00
2022-09-12T03:05:19.545Z,11.70
2022-09-12T03:06:19.686Z,11.50
2022-09-12T03:07:19.518Z,11.70
2022-09-12T03:08:19.505Z,11.40
2022-09-12T03:09:19.657Z,12.10
2022-09-12T03:10:19.486Z,12.30
2022-09-12T03:11:19.473Z,12.20
2022-09-12T03:12:19.467Z,12.70
2022-09-12T03:13:19.445Z,11.80
2022-09-12T03:14:19.480Z,11.60
2022-09-12T03:15:19.434Z,11.30
2022-09-12T03:16:19.462Z,11.00
2022-09-12T03:17:19.406Z,11.60
2022-09-12T03:18:19.402Z,11.90
2022-09-12T03:19:19.386Z,12.20
2022-09-12T03:20:19.527Z,13.50
2022-09-12T03:21:19.525Z,13.10
2022-09-12T03:22:19.356Z,13.30
2022-09-12T03:23:19.349Z,13.80
2022-09-12T03:24:19.331Z,13.80
2022-09-12T03:25:19.318Z,13.70
2022-09-12T03:26:19.311Z,13.70
2022-09-12T03:27:19.464Z,12.70
2022-09-12T03:28:19.290Z,12.80
2022-09-12T03:29:19.279Z,13.20
2022-09-12T03:30:19.295Z,13.40
2022-09-12T03:31:19.259Z,13.60
2022-09-12T03:32:19.255Z,13.70
2022-09-12T03:33:19.391Z,14.30
2022-09-12T03:34:19.226Z,13.60
2022-09-12T03:35:22.831Z,13.20
2022-09-12T03:36:19.210Z,14.20
2022-09-12T03:37:19.186Z,14.00
2022-09-12T03:38:19.179Z,12.90
2022-09-12T03:39:19.327Z,13.40
2022-09-12T03:40:19.171Z,14.40
2022-09-12T03:41:19.166Z,14.20
2022-09-12T03:42:19.135Z,14.00
2022-09-12T03:43:19.155Z,13.70
2022-09-12T03:44:19.140Z,13.30
2022-09-12T03:45:19.326Z,13.50
2022-09-12T03:46:19.097Z,13.50
2022-09-12T03:47:19.096Z,14.10
2022-09-12T03:48:19.076Z,13.10
2022-09-12T03:49:19.069Z,12.90
2022-09-12T03:50:19.057Z,12.70
2022-09-12T03:51:19.277Z,13.10
2022-09-12T03:52:19.033Z,13.70
2022-09-12T03:53:19.018Z,13.60
2022-09-12T03:54:19.019Z,13.20
2022-09-12T03:55:19.005Z,13.50
2022-09-12T03:56:18.991Z,13.00
2022-09-12T03:57:19.147Z,13.60
2022-09-12T03:58:18.970Z,13.70
2022-09-12T03:59:18.949Z,14.10
2022-09-12T04:00:19.971Z,13.20
2022-09-12T04:01:18.974Z,13.50
2022-09-12T04:02:18.979Z,13.20
2022-09-12T04:03:19.128Z,13.50
2022-09-12T04:04:18.914Z,13.10
2022-09-12T04:05:18.886Z,13.40
2022-09-12T04:06:18.886Z,13.70
2022-09-12T04:07:18.867Z,13.50
2022-09-12T04:08:18.870Z,13.20
2022-09-12T04:09:19.066Z,13.50
2022-09-12T04:10:18.836Z,13.50
2022-09-12T04:11:18.824Z,12.50
2022-09-12T04:12:18.823Z,13.00
2022-09-12T04:13:18.807Z,12.70
2022-09-12T04:14:18.798Z,12.70
2022-09-12T04:15:18.994Z,12.20
2022-09-12T04:16:18.854Z,12.00
2022-09-12T04:17:18.757Z,12.60
2022-09-12T04:18:18.767Z,12.60
2022-09-12T04:19:18.748Z,12.40
2022-09-12T04:20:18.973Z,13.40
2022-09-12T04:21:18.712Z,12.80
2022-09-12T04:22:18.716Z,12.40
2022-09-12T04:23:18.698Z,13.00
2022-09-12T04:24:18.693Z,12.50
2022-09-12T04:25:18.709Z,11.80
2022-09-12T04:26:18.827Z,12.40
2022-09-12T04:27:18.691Z,12.60
2022-09-12T04:28:18.647Z,13.20
2022-09-12T04:29:18.645Z,13.00
2022-09-12T04:30:18.654Z,12.20
2022-09-12T04:31:18.609Z,11.80
2022-09-12T04:32:18.770Z,11.90
2022-09-12T04:33:18.607Z,12.10
2022-09-12T04:34:18.588Z,12.10
2022-09-12T04:35:18.604Z,11.60
2022-09-12T04:36:18.575Z,12.40
2022-09-12T04:37:18.546Z,12.20
2022-09-12T04:38:18.729Z,12.00
2022-09-12T04:39:18.527Z,12.30
2022-09-12T04:40:18.569Z,12.50
2022-09-12T04:41:18.543Z,13.80
2022-09-12T04:42:18.528Z,13.50
2022-09-12T04:43:18.487Z,13.50
2022-09-12T04:44:18.634Z,14.80
2022-09-12T04:45:18.463Z,13.70
2022-09-12T04:46:18.469Z,15.00
2022-09-12T04:47:18.459Z,15.20
2022-09-12T04:48:18.437Z,15.40
2022-09-12T04:49:18.418Z,15.40
2022-09-12T04:50:18.579Z,14.80
2022-09-12T04:51:18.400Z,15.60
2022-09-12T04:52:18.390Z,14.60
2022-09-12T04:53:18.374Z,15.00
2022-09-12T04:54:18.385Z,15.90
2022-09-12T04:55:18.349Z,15.90
2022-09-12T04:56:18.382Z,15.50
2022-09-12T04:57:18.327Z,14.80
2022-09-12T04:58:18.318Z,15.70
2022-09-12T04:59:18.312Z,16.00
2022-09-12T05:00:18.301Z,16.40
2022-09-12T05:01:18.328Z,16.30
2022-09-12T05:02:18.555Z,15.50
2022-09-12T05:03:18.274Z,16.70
2022-09-12T05:04:18.255Z,16.10
2022-09-12T05:05:18.256Z,16.40
2022-09-12T05:06:18.233Z,16.30
2022-09-12T05:07:18.226Z,16.90
2022-09-12T05:08:18.417Z,16.30
2022-09-12T05:09:18.198Z,16.70
2022-09-12T05:10:18.204Z,17.70
2022-09-12T05:11:21.581Z,18.20
2022-09-12T05:12:19.168Z,18.90
2022-09-12T05:13:18.167Z,18.90
2022-09-12T05:14:18.324Z,19.00
2022-09-12T05:15:18.174Z,19.10
2022-09-12T05:16:18.180Z,19.50
2022-09-12T05:17:18.158Z,18.90
2022-09-12T05:18:18.111Z,19.40
2022-09-12T05:19:18.089Z,19.40
2022-09-12T05:20:18.262Z,20.00
2022-09-12T05:21:18.067Z,18.60
2022-09-12T05:22:18.072Z,19.50
2022-09-12T05:23:18.069Z,18.50
2022-09-12T05:24:18.065Z,18.80
2022-09-12T05:25:18.029Z,19.00
2022-09-12T05:26:18.185Z,19.30
2022-09-12T05:27:18.009Z,19.50
2022-09-12T05:28:18.007Z,18.50
2022-09-12T05:29:17.999Z,18.30
2022-09-12T05:30:18.004Z,17.80
2022-09-12T05:31:17.962Z,18.00
2022-09-12T05:32:18.262Z,18.00
2022-09-12T05:33:20.931Z,16.20
2022-09-12T05:34:18.928Z,16.70
2022-09-12T05:35:17.929Z,17.10
2022-09-12T05:36:17.915Z,17.10
2022-09-12T05:37:17.922Z,20.20
2022-09-12T05:38:18.056Z,19.80
2022-09-12T05:39:17.887Z,19.90
2022-09-12T05:40:17.938Z,19.30
2022-09-12T05:41:20.921Z,20.60
2022-09-12T05:42:18.852Z,20.50
2022-09-12T05:43:17.838Z,20.40
2022-09-12T05:44:17.983Z,21.30
2022-09-12T05:45:17.808Z,21.50
2022-09-12T05:46:17.813Z,19.20
2022-09-12T05:47:17.812Z,19.80
2022-09-12T05:48:17.788Z,19.30
2022-09-12T05:49:17.772Z,17.50
2022-09-12T05:50:17.931Z,17.90
2022-09-12T05:51:17.749Z,17.50
2022-09-12T05:52:17.748Z,17.80
2022-09-12T05:53:17.728Z,17.40
2022-09-12T05:54:17.727Z,16.90
2022-09-12T05:55:17.707Z,16.10
2022-09-12T05:56:17.895Z,15.80
2022-09-12T05:57:17.687Z,15.40
2022-09-12T05:58:17.687Z,15.80
2022-09-12T05:59:17.676Z,14.50
2022-09-12T06:00:17.657Z,15.20
2022-09-12T06:01:17.701Z,17.40
2022-09-12T06:02:17.825Z,17.80
2022-09-12T06:03:17.641Z,16.90
2022-09-12T06:04:17.629Z,15.40
2022-09-12T06:05:17.599Z,14.40
2022-09-12T06:06:17.592Z,14.30
2022-09-12T06:07:17.736Z,13.20
2022-09-12T06:08:17.567Z,12.70
2022-09-12T06:09:17.559Z,12.40
2022-09-12T06:10:17.549Z,12.00
2022-09-12T06:11:17.538Z,12.70
2022-09-12T06:12:17.528Z,13.20
2022-09-12T06:13:17.763Z,12.40
2022-09-12T06:14:17.515Z,12.60
2022-09-12T06:15:17.487Z,12.50
2022-09-12T06:16:17.539Z,13.00
2022-09-12T06:17:17.467Z,13.60
2022-09-12T06:18:17.465Z,12.40
2022-09-12T06:19:17.615Z,12.80
2022-09-12T06:20:17.467Z,12.30
2022-09-12T06:21:17.446Z,11.30
2022-09-12T06:22:17.421Z,11.60
2022-09-12T06:23:17.408Z,12.20
2022-09-12T06:24:17.422Z,11.40
2022-09-12T06:25:17.548Z,11.90
2022-09-12T06:26:17.378Z,12.10
2022-09-12T06:27:17.361Z,12.70
2022-09-12T06:28:17.358Z,15.30
2022-09-12T06:29:17.355Z,18.60
2022-09-12T06:30:17.337Z,19.60
2022-09-12T06:31:17.492Z,19.70
2022-09-12T06:32:17.314Z,19.80
2022-09-12T06:33:17.297Z,19.10
2022-09-12T06:34:17.328Z,19.10
2022-09-12T06:35:17.277Z,16.80
2022-09-12T06:36:17.279Z,16.50
2022-09-12T06:37:17.427Z,15.60
2022-09-12T06:38:17.249Z,15.30
2022-09-12T06:39:17.921Z,15.30
2022-09-12T06:40:17.264Z,14.80
2022-09-12T06:41:17.219Z,14.80
2022-09-12T06:42:17.221Z,15.30
2022-09-12T06:43:17.436Z,13.40
2022-09-12T06:44:17.190Z,12.90
2022-09-12T06:45:17.167Z,12.10
2022-09-12T06:46:17.214Z,13.40
2022-09-12T06:47:24.668Z,13.70
2022-09-12T06:48:17.158Z,12.30
2022-09-12T06:49:17.474Z,11.80
2022-09-12T06:50:17.137Z,10.90
2022-09-12T06:51:17.109Z,10.80
2022-09-12T06:52:17.108Z,10.10
2022-09-12T06:53:17.088Z,11.10
2022-09-12T06:54:17.368Z,11.20
2022-09-12T06:55:20.340Z,10.40
2022-09-12T06:56:17.075Z,10.60
2022-09-12T06:57:17.059Z,10.80
2022-09-12T06:58:17.048Z,11.00
2022-09-12T06:59:17.032Z,11.00
2022-09-12T07:00:17.030Z,11.50
2022-09-12T07:01:17.218Z,11.20
2022-09-12T07:02:24.564Z,10.60
2022-09-12T07:03:16.977Z,10.60
2022-09-12T07:04:16.986Z,10.10
2022-09-12T07:05:16.952Z,10.60
2022-09-12T07:06:16.962Z,10.70
2022-09-12T07:07:16.976Z,9.80
2022-09-12T07:08:16.929Z,10.30
2022-09-12T07:09:16.909Z,10.70
2022-09-12T07:10:21.643Z,10.90
2022-09-12T07:11:17.895Z,9.60
2022-09-12T07:12:16.894Z,10.50
2022-09-12T07:13:16.887Z,10.30
2022-09-12T07:14:16.867Z,9.70
2022-09-12T07:15:16.848Z,8.50
2022-09-12T07:16:19.664Z,9.00
2022-09-12T07:17:16.833Z,9.20
2022-09-12T07:18:16.819Z,8.00
2022-09-12T07:19:16.987Z,8.20
2022-09-12T07:20:16.779Z,8.30
2022-09-12T07:21:16.795Z,9.00
2022-09-12T07:22:16.780Z,9.10
2022-09-12T07:23:16.747Z,9.20
2022-09-12T07:24:16.745Z,9.80
2022-09-12T07:25:16.901Z,8.70
2022-09-12T07:26:16.725Z,8.80
2022-09-12T07:27:16.718Z,10.00
2022-09-12T07:28:16.702Z,8.80
2022-09-12T07:30:17.837Z,9.50
2022-09-12T07:31:16.748Z,8.00
2022-09-12T07:32:16.657Z,8.60
2022-09-12T07:33:16.648Z,8.60
2022-09-12T07:34:16.637Z,8.80
2022-09-12T07:35:16.628Z,8.90
2022-09-12T07:36:16.767Z,8.60
2022-09-12T07:37:16.618Z,8.60
2022-09-12T07:38:16.592Z,9.70
2022-09-12T07:39:16.587Z,9.30
2022-09-12T07:40:16.622Z,8.40
2022-09-12T07:41:16.996Z,7.70
2022-09-12T07:42:16.549Z,8.60
2022-09-12T07:43:16.549Z,9.00
2022-09-12T07:44:16.532Z,8.40
2022-09-12T07:45:16.518Z,7.80
2022-09-12T07:46:16.520Z,7.90
2022-09-12T07:47:16.684Z,8.00
2022-09-12T07:48:16.488Z,8.30
2022-09-12T07:49:16.493Z,7.80
2022-09-12T07:50:16.477Z,8.30
2022-09-12T07:51:16.466Z,8.90
2022-09-12T07:52:16.447Z,7.90
2022-09-12T07:53:16.677Z,8.30
2022-09-12T07:54:16.437Z,8.20
2022-09-12T07:55:16.407Z,7.80
2022-09-12T07:56:16.404Z,8.60
2022-09-12T07:57:16.393Z,8.80
2022-09-12T07:58:16.368Z,7.80
2022-09-12T07:59:29.947Z,6.90
2022-09-12T08:00:17.353Z,7.20
2022-09-12T08:01:16.424Z,7.70
2022-09-12T08:02:17.723Z,8.20
2022-09-12T08:03:16.352Z,8.20
2022-09-12T08:04:16.308Z,8.30
2022-09-12T08:05:16.468Z,7.60
2022-09-12T08:06:16.323Z,8.10
2022-09-12T08:07:16.292Z,8.10
2022-09-12T08:08:16.265Z,6.50
2022-09-12T08:09:16.260Z,7.20
2022-09-12T08:10:16.281Z,6.80
2022-09-12T08:11:16.458Z,8.00
2022-09-12T08:12:16.219Z,6.80
2022-09-12T08:13:16.218Z,7.10
2022-09-12T08:14:16.203Z,7.60
2022-09-12T08:15:16.188Z,7.80
2022-09-12T08:16:16.180Z,7.20
2022-09-12T08:17:16.329Z,7.10
2022-09-12T08:18:16.157Z,7.10
2022-09-12T08:19:16.161Z,6.50
2022-09-12T08:20:16.178Z,7.70
2022-09-12T08:21:16.119Z,6.30
2022-09-12T08:22:16.112Z,7.50
2022-09-12T08:23:16.293Z,7.00
2022-09-12T08:24:16.097Z,7.40
2022-09-12T08:25:16.085Z,7.10
2022-09-12T08:26:16.080Z,6.90
2022-09-12T08:27:16.065Z,6.40
2022-09-12T08:28:16.050Z,6.30
2022-09-12T08:29:16.210Z,5.40
2022-09-12T08:30:16.029Z,5.90
2022-09-12T08:31:16.129Z,6.40
2022-09-12T08:32:16.020Z,6.40
2022-09-12T08:33:16.000Z,6.40
2022-09-12T08:34:15.980Z,5.80
2022-09-12T08:35:16.140Z,6.30
2022-09-12T08:36:16.005Z,5.90
2022-09-12T08:37:15.971Z,6.80
2022-09-12T08:38:15.950Z,6.80
2022-09-12T08:39:15.931Z,6.10
2022-09-12T08:40:15.978Z,5.60
2022-09-12T08:41:16.081Z,5.50
2022-09-12T08:42:15.903Z,5.70
2022-09-12T08:43:15.921Z,6.10
2022-09-12T08:44:15.888Z,6.00
2022-09-12T08:45:15.871Z,5.10
2022-09-12T08:46:15.885Z,5.20
2022-09-12T08:47:16.022Z,5.60
2022-09-12T08:48:15.844Z,5.90
2022-09-12T08:49:15.835Z,5.80
2022-09-12T08:50:15.830Z,6.40
2022-09-12T08:51:15.810Z,6.00
2022-09-12T08:52:15.801Z,6.30
2022-09-12T08:53:16.142Z,7.40
2022-09-12T08:54:15.778Z,8.10
2022-09-12T08:55:15.783Z,7.60
2022-09-12T08:56:15.751Z,6.40
2022-09-12T08:57:15.741Z,5.70
2022-09-12T08:58:15.729Z,6.50
2022-09-12T08:59:15.908Z,5.90
2022-09-12T09:00:15.710Z,6.30
2022-09-12T09:01:15.756Z,5.60
2022-09-12T09:02:15.735Z,5.60
2022-09-12T09:03:15.681Z,5.60
2022-09-12T09:04:15.659Z,6.20
2022-09-12T09:05:15.871Z,5.80
2022-09-12T09:06:15.653Z,5.80
2022-09-12T09:07:15.632Z,5.90
2022-09-12T09:08:15.622Z,6.10
2022-09-12T09:09:15.625Z,5.30
2022-09-12T09:10:15.601Z,5.30
2022-09-12T09:11:15.811Z,6.40
2022-09-12T09:12:15.592Z,5.50
2022-09-12T09:13:15.579Z,4.90
2022-09-12T09:14:15.559Z,4.80
2022-09-12T09:15:15.565Z,5.70
2022-09-12T09:16:15.618Z,5.50
2022-09-12T09:17:15.702Z,6.10
2022-09-12T09:18:15.539Z,5.50
2022-09-12T09:19:15.518Z,5.60
2022-09-12T09:20:15.502Z,5.30
2022-09-12T09:21:15.482Z,4.50
2022-09-12T09:22:15.498Z,5.20
2022-09-12T09:23:15.743Z,4.50
2022-09-12T09:24:15.448Z,4.70
2022-09-12T09:25:16.141Z,4.80
2022-09-12T09:26:15.477Z,4.10
2022-09-12T09:27:36.936Z,4.10
2022-09-12T09:28:16.653Z,4.90
2022-09-12T09:29:15.404Z,5.30
2022-09-12T09:30:15.410Z,5.20
2022-09-12T09:31:15.425Z,4.40
2022-09-12T09:32:15.363Z,5.50
2022-09-12T09:33:15.362Z,4.40
2022-09-12T09:34:15.510Z,4.60
2022-09-12T09:35:15.343Z,5.10
2022-09-12T09:36:15.324Z,4.50
2022-09-12T09:37:15.325Z,4.30
2022-09-12T09:38:15.305Z,3.90
2022-09-12T09:39:15.302Z,4.20
2022-09-12T09:40:15.491Z,4.70
2022-09-12T09:41:15.274Z,4.50
2022-09-12T09:42:15.266Z,5.50
2022-09-12T09:43:15.259Z,4.70
2022-09-12T09:44:15.247Z,5.00
2022-09-12T09:45:15.875Z,4.50
2022-09-12T09:46:15.571Z,4.20
2022-09-12T09:47:15.214Z,4.80
2022-09-12T09:48:15.203Z,4.10
2022-09-12T09:49:15.206Z,3.30
2022-09-12T09:50:15.185Z,3.90
2022-09-12T09:51:15.171Z,3.50
2022-09-12T09:52:15.329Z,2.90
2022-09-12T09:53:15.163Z,3.80
2022-09-12T09:54:15.143Z,3.10
2022-09-12T09:55:15.152Z,3.40
2022-09-12T09:56:15.125Z,3.10
2022-09-12T09:57:15.112Z,3.60
2022-09-12T09:58:15.264Z,3.40
2022-09-12T09:59:15.089Z,3.60
2022-09-12T10:00:15.068Z,3.40
2022-09-12T10:01:15.117Z,3.10
2022-09-12T10:02:15.081Z,3.40
2022-09-12T10:03:15.043Z,2.90
2022-09-12T10:04:15.462Z,2.70
2022-09-12T10:05:15.082Z,2.60
2022-09-12T10:06:15.013Z,2.40
2022-09-12T10:07:15.011Z,2.20
2022-09-12T10:08:14.985Z,2.50
2022-09-12T10:09:14.986Z,2.10
2022-09-12T10:10:15.125Z,2.50
2022-09-12T10:11:14.979Z,2.80
2022-09-12T10:12:14.953Z,2.90
2022-09-12T10:13:14.952Z,3.00
2022-09-12T10:14:14.930Z,2.70
2022-09-12T10:15:14.934Z,2.50
2022-09-12T10:16:15.106Z,2.20
2022-09-12T10:17:14.898Z,2.00
2022-09-12T10:18:14.875Z,2.00
2022-09-12T10:19:14.896Z,2.30
2022-09-12T10:20:21.687Z,2.20
2022-09-12T10:21:16.072Z,2.00
2022-09-12T10:22:14.842Z,1.90
2022-09-12T10:23:14.838Z,1.90
2022-09-12T10:24:14.815Z,2.20
2022-09-12T10:25:14.826Z,1.90
2022-09-12T10:26:14.804Z,2.10
2022-09-12T10:27:15.176Z,1.70
2022-09-12T10:28:14.779Z,1.60
2022-09-12T10:29:14.774Z,1.90
2022-09-12T10:30:14.818Z,2.00
2022-09-12T10:31:14.836Z,2.00
2022-09-12T10:32:14.791Z,2.10
2022-09-12T10:33:14.975Z,2.80
2022-09-12T10:34:14.712Z,2.50
2022-09-12T10:35:14.716Z,3.00
2022-09-12T10:36:14.691Z,8.00
2022-09-12T10:37:14.695Z,11.90
2022-09-12T10:38:14.670Z,10.60
2022-09-12T10:39:14.880Z,8.30
2022-09-12T10:40:14.756Z,11.80
2022-09-12T10:41:14.642Z,4.80
2022-09-12T10:42:14.628Z,6.20
2022-09-12T10:43:14.624Z,7.90
2022-09-12T10:44:14.657Z,8.70
2022-09-12T10:45:14.850Z,5.50
2022-09-12T10:46:14.684Z,5.30
2022-09-12T10:47:14.592Z,2.40
2022-09-12T10:48:14.566Z,2.00
2022-09-12T10:49:14.557Z,1.70
2022-09-12T10:50:22.395Z,1.80
2022-09-12T10:51:15.705Z,2.60
2022-09-12T10:52:14.519Z,2.60
2022-09-12T10:53:14.523Z,2.60
2022-09-12T10:54:14.508Z,2.70
2022-09-12T10:55:14.491Z,2.40
2022-09-12T10:56:14.486Z,2.20
2022-09-12T10:57:14.795Z,2.10
2022-09-12T10:58:14.458Z,2.10
2022-09-12T10:59:18.071Z,2.00
2022-09-12T11:00:15.431Z,1.60
2022-09-12T11:01:14.481Z,2.10
2022-09-12T11:02:14.487Z,1.90
2022-09-12T11:03:14.629Z,1.30
2022-09-12T11:04:14.390Z,1.50
2022-09-12T11:05:14.390Z,1.40
2022-09-12T11:06:14.368Z,1.40
2022-09-12T11:07:14.372Z,1.50
2022-09-12T11:08:14.354Z,1.80
2022-09-12T11:09:14.524Z,1.90
2022-09-12T11:10:14.351Z,1.80
2022-09-12T11:11:14.323Z,1.90
2022-09-12T11:12:14.308Z,1.70
2022-09-12T11:13:14.303Z,1.50
2022-09-12T11:14:14.286Z,1.50
2022-09-12T11:15:14.634Z,1.30
2022-09-12T11:16:14.311Z,1.60
2022-09-12T11:17:14.261Z,1.50
2022-09-12T11:18:14.242Z,1.70
2022-09-12T11:19:14.241Z,1.80
2022-09-12T11:20:14.229Z,1.40
2022-09-12T11:21:14.379Z,1.50
2022-09-12T11:22:14.201Z,1.80
2022-09-12T11:23:14.189Z,1.80
2022-09-12T11:24:14.179Z,1.50
2022-09-12T11:25:14.179Z,1.60
2022-09-12T11:26:14.181Z,1.60
2022-09-12T11:27:14.319Z,1.60
2022-09-12T11:28:14.130Z,1.50
2022-09-12T11:29:14.130Z,1.60
2022-09-12T11:30:14.122Z,1.80
2022-09-12T11:31:14.219Z,1.70
2022-09-12T11:32:14.099Z,1.60
2022-09-12T11:33:14.351Z,1.60
2022-09-12T11:34:14.076Z,1.30
2022-09-12T11:35:17.437Z,1.80
2022-09-12T11:36:14.067Z,1.70
2022-09-12T11:37:17.819Z,1.80
2022-09-12T11:38:14.031Z,1.30
2022-09-12T11:39:14.198Z,1.70
2022-09-12T11:40:14.018Z,1.40
2022-09-12T11:41:14.000Z,1.50
2022-09-12T11:42:14.013Z,1.50
2022-09-12T11:43:13.973Z,1.80
2022-09-12T11:44:13.978Z,1.60
2022-09-12T11:45:14.128Z,1.60
2022-09-12T11:46:13.995Z,1.60
2022-09-12T11:47:13.931Z,1.90
2022-09-12T11:48:13.933Z,1.50
2022-09-12T11:49:13.923Z,1.70
2022-09-12T11:50:13.933Z,1.90
2022-09-12T11:51:14.092Z,1.70
2022-09-12T11:52:13.883Z,1.40
2022-09-12T11:53:13.867Z,1.40
2022-09-12T11:54:13.869Z,1.60
2022-09-12T11:55:13.862Z,1.60
2022-09-12T11:56:13.843Z,1.50
2022-09-12T11:57:14.077Z,1.30
2022-09-12T11:58:13.818Z,1.50
2022-09-12T11:59:13.804Z,1.40
2022-09-12T12:00:13.799Z,1.80
2022-09-12T12:01:13.790Z,1.60
2022-09-12T12:02:13.827Z,1.60
2022-09-12T12:03:14.008Z,1.60
2022-09-12T12:04:13.765Z,1.30
2022-09-12T12:05:13.748Z,1.20
2022-09-12T12:06:13.736Z,1.70
2022-09-12T12:07:13.723Z,1.50
2022-09-12T12:08:13.704Z,1.40
2022-09-12T12:09:13.864Z,1.60
2022-09-12T12:10:13.689Z,1.30
2022-09-12T12:11:13.673Z,1.40
2022-09-12T12:12:13.672Z,1.50
2022-09-12T12:13:14.366Z,1.50
2022-09-12T12:14:13.655Z,1.50
2022-09-12T12:15:13.813Z,1.40
2022-09-12T12:16:13.681Z,1.60
2022-09-12T12:17:13.614Z,1.30
2022-09-12T12:18:13.619Z,1.40
2022-09-12T12:19:13.586Z,1.50
2022-09-12T12:20:13.583Z,1.40
2022-09-12T12:21:13.914Z,1.30
2022-09-12T12:22:13.583Z,1.10
2022-09-12T12:23:13.562Z,1.10
2022-09-12T12:24:13.538Z,1.50
2022-09-12T12:25:14.786Z,1.10
2022-09-12T12:26:13.818Z,1.40
2022-09-12T12:27:13.842Z,1.30
2022-09-12T12:28:13.511Z,1.20
2022-09-12T12:29:13.504Z,1.30
2022-09-12T12:30:13.513Z,1.40
2022-09-12T12:31:13.532Z,1.10
2022-09-12T12:32:13.445Z,1.10
2022-09-12T12:33:13.606Z,1.10
2022-09-12T12:34:13.437Z,1.10
2022-09-12T12:35:13.416Z,1.20
2022-09-12T12:36:13.429Z,1.10
2022-09-12T12:37:13.422Z,1.10
2022-09-12T12:38:13.391Z,1.40
2022-09-12T12:39:13.534Z,1.30
2022-09-12T12:40:13.430Z,1.10
2022-09-12T12:41:13.365Z,1.30
2022-09-12T12:42:18.297Z,1.40
2022-09-12T12:43:14.345Z,1.20
2022-09-12T12:44:13.324Z,1.50
2022-09-12T12:45:13.650Z,1.20
2022-09-12T12:46:13.331Z,1.00
2022-09-12T12:47:13.304Z,1.20
2022-09-12T12:48:13.277Z,1.20
2022-09-12T12:49:13.257Z,1.00
2022-09-12T12:50:13.262Z,1.20
2022-09-12T12:51:13.422Z,1.00
2022-09-12T12:52:13.236Z,1.30
2022-09-12T12:53:13.227Z,1.10
2022-09-12T12:54:13.217Z,0.90
2022-09-12T12:55:13.198Z,1.10
2022-09-12T12:56:13.188Z,1.20
2022-09-12T12:57:13.347Z,1.20
2022-09-12T12:58:13.167Z,1.10
2022-09-12T12:59:13.156Z,1.20
2022-09-12T13:00:13.159Z,1.30
2022-09-12T13:01:13.199Z,1.10
2022-09-12T13:02:13.214Z,1.00
2022-09-12T13:03:13.396Z,1.30
2022-09-12T13:04:13.109Z,1.20
2022-09-12T13:05:13.099Z,1.10